Time,TemperatureF,DewpointF,PressureIn,WindDirection,WindDirectionDegrees,WindSpeedMPH,WindSpeedGustMPH,Humidity,HourlyPrecipIn,Conditions,Clouds,dailyrainin,SoftwareType,DateUTC
2013-04-06 00:04:00,33.8,25.0,29.87,West,281,3.0,9.0,70,0.00,,,0.00,weatherlink.com 1.10,2013-04-06 04:04:00,
2013-04-06 00:19:00,33.5,25.0,29.88,WSW,252,5.0,10.0,70,0.00,,,0.00,weatherlink.com 1.10,2013-04-06 04:19:00,
2013-04-06 00:34:00,33.4,25.0,29.89,NW,317,2.0,11.0,70,0.00,,,0.00,weatherlink.com 1.10,2013-04-06 04:34:00,
2013-04-06 01:19:00,32.6,21.0,29.91,NE,56,4.0,16.0,62,0.00,,,0.00,weatherlink.com 1.10,2013-04-06 05:19:00,
2013-04-06 01:34:00,32.2,18.0,29.90,WSW,252,11.0,18.0,57,0.00,,,0.00,weatherlink.com 1.10,2013-04-06 05:34:00,
2013-04-06 01:49:00,31.9,18.0,29.90,WNW,287,7.0,27.0,57,0.00,,,0.00,weatherlink.com 1.10,2013-04-06 05:49:00,
2013-04-06 02:04:00,31.3,18.0,29.91,NNW,328,12.0,17.0,59,0.00,,,0.00,weatherlink.com 1.10,2013-04-06 06:04:00,
2013-04-06 02:19:00,31.0,18.0,29.91,WSW,253,8.0,17.0,59,0.00,,,0.00,weatherlink.com 1.10,2013-04-06 06:19:00,
2013-04-06 02:34:00,30.7,19.0,29.91,West,276,4.0,22.0,61,0.00,,,0.00,weatherlink.com 1.10,2013-04-06 06:34:00,
2013-04-06 02:49:00,30.8,17.0,29.93,NW,307,8.0,26.0,58,0.00,,,0.00,weatherlink.com 1.10,2013-04-06 06:49:00,
2013-04-06 03:19:00,30.2,16.0,29.94,NW,311,2.0,21.0,57,0.00,,,0.00,weatherlink.com 1.10,2013-04-06 07:19:00,
2013-04-06 03:34:00,29.8,17.0,29.96,WNW,283,4.0,18.0,58,0.00,,,0.00,weatherlink.com 1.10,2013-04-06 07:34:00,
2013-04-06 03:49:00,29.6,16.0,29.96,West,278,7.0,21.0,57,0.00,,,0.00,weatherlink.com 1.10,2013-04-06 07:49:00,
2013-04-06 04:04:00,29.2,16.0,29.97,WNW,293,4.0,14.0,58,0.00,,,0.00,weatherlink.com 1.10,2013-04-06 08:04:00,
2013-04-06 04:19:00,28.8,15.0,29.98,WNW,283,5.0,15.0,57,0.00,,,0.00,weatherlink.com 1.10,2013-04-06 08:19:00,
2013-04-06 04:34:00,28.5,14.0,29.99,WNW,299,6.0,18.0,56,0.00,,,0.00,weatherlink.com 1.10,2013-04-06 08:34:00,
2013-04-06 04:49:00,28.1,14.0,30.00,West,270,2.0,14.0,57,0.00,,,0.00,weatherlink.com 1.10,2013-04-06 08:49:00,
2013-04-06 05:05:00,27.9,14.0,30.01,WNW,303,6.0,19.0,57,0.00,,,0.00,weatherlink.com 1.10,2013-04-06 09:05:00,
2013-04-06 05:20:00,27.5,14.0,30.02,West,263,6.0,17.0,58,0.00,,,0.00,weatherlink.com 1.10,2013-04-06 09:20:00,
2013-04-06 05:35:00,27.3,14.0,30.04,West,273,4.0,15.0,57,0.00,,,0.00,weatherlink.com 1.10,2013-04-06 09:35:00,
2013-04-06 05:50:00,26.9,13.0,30.05,West,264,5.0,12.0,57,0.00,,,0.00,weatherlink.com 1.10,2013-04-06 09:50:00,
2013-04-06 06:05:00,26.7,14.0,30.06,West,278,10.0,15.0,58,0.00,,,0.00,weatherlink.com 1.10,2013-04-06 10:05:00,
2013-04-06 06:20:00,26.3,14.0,30.07,West,278,4.0,12.0,59,0.00,,,0.00,weatherlink.com 1.10,2013-04-06 10:20:00,
2013-04-06 06:35:00,26.1,13.0,30.08,West,274,3.0,12.0,58,0.00,,,0.00,weatherlink.com 1.10,2013-04-06 10:35:00,
2013-04-06 06:50:00,25.8,12.0,30.09,West,266,3.0,15.0,57,0.00,,,0.00,weatherlink.com 1.10,2013-04-06 10:50:00,
2013-04-06 07:05:00,25.8,12.0,30.10,NE,49,4.0,13.0,56,0.00,,,0.00,weatherlink.com 1.10,2013-04-06 11:05:00,
2013-04-06 07:20:00,25.6,12.0,30.11,West,281,6.0,18.0,56,0.00,,,0.00,weatherlink.com 1.10,2013-04-06 11:20:00,
2013-04-06 07:50:00,25.8,12.0,30.12,West,269,4.0,18.0,56,0.00,,,0.00,weatherlink.com 1.10,2013-04-06 11:50:00,
2013-04-06 08:05:00,26.0,12.0,30.13,WNW,290,10.0,15.0,56,0.00,,,0.00,weatherlink.com 1.10,2013-04-06 12:05:00,
2013-04-06 08:20:00,26.0,11.0,30.14,East,79,6.0,18.0,53,0.00,,,0.00,weatherlink.com 1.10,2013-04-06 12:20:00,
2013-04-06 08:35:00,27.2,10.0,30.14,West,274,6.0,17.0,48,0.00,,,0.00,weatherlink.com 1.10,2013-04-06 12:35:00,
2013-04-06 08:50:00,28.2,9.0,30.14,SW,232,11.0,14.0,44,0.00,,,0.00,weatherlink.com 1.10,2013-04-06 12:50:00,
2013-04-06 09:05:00,28.6,8.0,30.15,ENE,63,5.0,19.0,42,0.00,,,0.00,weatherlink.com 1.10,2013-04-06 13:05:00,
2013-04-06 09:20:00,28.8,7.0,30.16,WSW,250,8.0,20.0,39,0.00,,,0.00,weatherlink.com 1.10,2013-04-06 13:20:00,
2013-04-06 09:36:00,29.0,5.0,30.16,West,281,12.0,19.0,36,0.00,,,0.00,weatherlink.com 1.10,2013-04-06 13:36:00,
2013-04-06 09:50:00,29.7,7.0,30.17,WSW,256,1.0,11.0,38,0.00,,,0.00,weatherlink.com 1.10,2013-04-06 13:50:00,
2013-04-06 10:06:00,29.7,4.0,30.18,SW,236,6.0,17.0,34,0.00,,,0.00,weatherlink.com 1.10,2013-04-06 14:06:00,
2013-04-06 10:20:00,30.6,5.0,30.18,WNW,290,5.0,15.0,34,0.00,,,0.00,weatherlink.com 1.10,2013-04-06 14:20:00,
2013-04-06 10:35:00,30.8,5.0,30.19,WSW,246,8.0,17.0,34,0.00,,,0.00,weatherlink.com 1.10,2013-04-06 14:35:00,
2013-04-06 10:50:00,31.6,5.0,30.19,WNW,283,4.0,15.0,32,0.00,,,0.00,weatherlink.com 1.10,2013-04-06 14:50:00,
2013-04-06 11:05:00,31.9,4.0,30.20,West,274,6.0,15.0,31,0.00,,,0.00,weatherlink.com 1.10,2013-04-06 15:05:00,
2013-04-06 11:35:00,32.9,5.0,30.20,SSE,156,12.0,18.0,30,0.00,,,0.00,weatherlink.com 1.10,2013-04-06 15:35:00,
2013-04-06 11:51:00,34.0,8.0,30.21,West,278,4.0,12.0,33,0.00,,,0.00,weatherlink.com 1.10,2013-04-06 15:51:00,
2013-04-06 12:06:00,34.2,5.0,30.20,WSW,240,10.0,18.0,29,0.00,,,0.00,weatherlink.com 1.10,2013-04-06 16:06:00,
2013-04-06 12:21:00,34.9,5.0,30.20,NNW,333,9.0,15.0,28,0.00,,,0.00,weatherlink.com 1.10,2013-04-06 16:21:00,
2013-04-06 12:36:00,35.6,5.0,30.21,WNW,288,6.0,15.0,28,0.00,,,0.00,weatherlink.com 1.10,2013-04-06 16:36:00,
2013-04-06 12:51:00,36.7,6.0,30.20,West,280,5.0,12.0,28,0.00,,,0.00,weatherlink.com 1.10,2013-04-06 16:51:00,
2013-04-06 13:06:00,36.7,5.0,30.21,NW,304,4.0,14.0,26,0.00,,,0.00,weatherlink.com 1.10,2013-04-06 17:06:00,
2013-04-06 13:21:00,36.7,4.0,30.21,WSW,243,10.0,15.0,25,0.00,,,0.00,weatherlink.com 1.10,2013-04-06 17:21:00,
2013-04-06 14:09:00,38.5,8.0,30.20,WNW,293,4.0,15.0,28,0.00,,,0.00,weatherlink.com 1.10,2013-04-06 18:09:00,
2013-04-06 14:36:00,38.1,4.0,30.20,West,262,4.0,12.0,24,0.00,,,0.00,weatherlink.com 1.10,2013-04-06 18:36:00,
2013-04-06 15:51:00,40.0,6.0,30.20,WNW,293,3.0,9.0,24,0.00,,,0.00,weatherlink.com 1.10,2013-04-06 19:51:00,
2013-04-06 16:06:00,40.3,6.0,30.21,WSW,238,6.0,10.0,24,0.00,,,0.00,weatherlink.com 1.10,2013-04-06 20:06:00,
2013-04-06 16:21:00,40.4,6.0,30.21,SW,229,3.0,14.0,24,0.00,,,0.00,weatherlink.com 1.10,2013-04-06 20:21:00,
2013-04-06 16:36:00,40.9,7.0,30.21,WNW,283,3.0,8.0,25,0.00,,,0.00,weatherlink.com 1.10,2013-04-06 20:36:00,
2013-04-06 16:51:00,41.6,7.0,30.22,West,281,5.0,5.0,24,0.00,,,0.00,weatherlink.com 1.10,2013-04-06 20:51:00,
2013-04-06 17:06:00,40.9,6.0,30.22,West,276,8.0,13.0,23,0.00,,,0.00,weatherlink.com 1.10,2013-04-06 21:06:00,
2013-04-06 17:21:00,40.9,7.0,30.22,WNW,284,5.0,9.0,24,0.00,,,0.00,weatherlink.com 1.10,2013-04-06 21:21:00,
2013-04-06 17:37:00,40.8,7.0,30.23,NW,314,3.0,7.0,25,0.00,,,0.00,weatherlink.com 1.10,2013-04-06 21:37:00,
2013-04-06 17:51:00,40.4,5.0,30.24,West,277,3.0,6.0,23,0.00,,,0.00,weatherlink.com 1.10,2013-04-06 21:51:00,
2013-04-06 18:06:00,40.7,4.0,30.24,WNW,284,5.0,7.0,22,0.00,,,0.00,weatherlink.com 1.10,2013-04-06 22:06:00,
2013-04-06 18:21:00,40.2,5.0,30.25,WNW,291,4.0,10.0,23,0.00,,,0.00,weatherlink.com 1.10,2013-04-06 22:21:00,
2013-04-06 18:51:00,38.5,4.0,30.26,West,269,1.0,4.0,23,0.00,,,0.00,weatherlink.com 1.10,2013-04-06 22:51:00,
2013-04-06 19:06:00,37.0,4.0,30.27,WNW,284,2.0,2.0,25,0.00,,,0.00,weatherlink.com 1.10,2013-04-06 23:06:00,
2013-04-06 19:21:00,34.7,8.0,30.27,SE,142,1.0,3.0,33,0.00,,,0.00,weatherlink.com 1.10,2013-04-06 23:21:00,
2013-04-06 19:37:00,32.4,10.0,30.28,SE,143,0.0,1.0,40,0.00,,,0.00,weatherlink.com 1.10,2013-04-06 23:37:00,
2013-04-06 19:51:00,30.9,9.0,30.29,SE,143,1.0,1.0,40,0.00,,,0.00,weatherlink.com 1.10,2013-04-06 23:51:00,
2013-04-06 20:06:00,29.8,9.0,30.30,SE,132,0.0,1.0,42,0.00,,,0.00,weatherlink.com 1.10,2013-04-07 00:06:00,
2013-04-06 20:22:00,28.3,11.0,30.30,SE,133,0.0,0.0,48,0.00,,,0.00,weatherlink.com 1.10,2013-04-07 00:22:00,
2013-04-06 20:37:00,27.9,12.0,30.31,SE,133,0.0,0.0,52,0.00,,,0.00,weatherlink.com 1.10,2013-04-07 00:37:00,
2013-04-06 20:52:00,27.6,16.0,30.30,West,262,0.0,2.0,62,0.00,,,0.00,weatherlink.com 1.10,2013-04-07 00:52:00,
2013-04-06 21:07:00,27.3,14.0,30.31,WSW,256,1.0,1.0,58,0.00,,,0.00,weatherlink.com 1.10,2013-04-07 01:07:00,
2013-04-06 21:23:00,27.0,15.0,30.31,WSW,256,0.0,0.0,60,0.00,,,0.00,weatherlink.com 1.10,2013-04-07 01:23:00,
2013-04-06 21:52:00,26.1,15.0,30.32,WSW,255,0.0,0.0,64,0.00,,,0.00,weatherlink.com 1.10,2013-04-07 01:52:00,
2013-04-06 22:07:00,25.7,16.0,30.32,ESE,117,0.0,1.0,67,0.00,,,0.00,weatherlink.com 1.10,2013-04-07 02:07:00,
2013-04-06 22:22:00,24.7,15.0,30.32,ESE,117,0.0,0.0,66,0.00,,,0.00,weatherlink.com 1.10,2013-04-07 02:22:00,
2013-04-06 22:37:00,25.2,16.0,30.32,SW,232,0.0,1.0,68,0.00,,,0.00,weatherlink.com 1.10,2013-04-07 02:37:00,
2013-04-06 22:52:00,24.3,16.0,30.32,SW,232,0.0,0.0,70,0.00,,,0.00,weatherlink.com 1.10,2013-04-07 02:52:00,
2013-04-06 23:07:00,23.9,16.0,30.32,SW,232,0.0,0.0,71,0.00,,,0.00,weatherlink.com 1.10,2013-04-07 03:07:00,
2013-04-06 23:22:00,23.8,16.0,30.33,SW,232,0.0,0.0,72,0.00,,,0.00,weatherlink.com 1.10,2013-04-07 03:22:00,
2013-04-06 23:37:00,23.8,16.0,30.33,SW,231,0.0,0.0,72,0.00,,,0.00,weatherlink.com 1.10,2013-04-07 03:37:00,
2013-04-06 23:52:00,22.6,15.0,30.33,SW,232,0.0,0.0,73,0.00,,,0.00,weatherlink.com 1.10,2013-04-07 03:52:00,